< < Back
Terminal Aerodrome Forecast


Current Version              Previous Versions:   1  2  3  4  5  6  7  8  9  

Terminal Aerodrome Forecast

770
FTUS44 KBMX 261100
TAFBHM
TAF
KBHM 261128Z 2612/2712 30005KT P6SM SKC
     FM261800 22008KT P6SM SCT150
     FM270300 28009KT P6SM SKC=

Latest METAR

273
SAUS70 KWBC 270700 RRD
MTRBHM
METAR KBHM 270653Z 31004KT 10SM OVC065 07/M01 A3019 RMK AO2 SLP223
T00671011


USA.gov is the U.S. government's official web portal to all federal, state and local government web resources and services.